sensor_id;sensor_type;location;lat;lon;timestamp;temperature;humidity
48043;DHT22;33988;47.992;8.820;2023-10-19T00:01:27;17.30;57.70
48043;DHT22;33988;47.992;8.820;2023-10-19T00:03:56;17.30;57.70
48043;DHT22;33988;47.992;8.820;2023-10-19T00:06:23;17.40;57.70
48043;DHT22;33988;47.992;8.820;2023-10-19T00:08:50;17.40;57.70
48043;DHT22;33988;47.992;8.820;2023-10-19T00:11:19;17.40;57.80
48043;DHT22;33988;47.992;8.820;2023-10-19T00:13:50;17.40;57.70
48043;DHT22;33988;47.992;8.820;2023-10-19T00:16:20;17.10;57.90
48043;DHT22;33988;47.992;8.820;2023-10-19T00:18:55;17.30;57.70
48043;DHT22;33988;47.992;8.820;2023-10-19T00:21:26;17.40;57.70
48043;DHT22;33988;47.992;8.820;2023-10-19T00:23:56;17.40;57.70
48043;DHT22;33988;47.992;8.820;2023-10-19T00:26:31;17.40;57.70
48043;DHT22;33988;47.992;8.820;2023-10-19T00:28:58;17.40;57.70
48043;DHT22;33988;47.992;8.820;2023-10-19T00:31:43;17.40;57.70
48043;DHT22;33988;47.992;8.820;2023-10-19T00:34:11;17.40;57.80
48043;DHT22;33988;47.992;8.820;2023-10-19T00:36:40;17.40;57.70
48043;DHT22;33988;47.992;8.820;2023-10-19T00:39:09;17.40;57.70
48043;DHT22;33988;47.992;8.820;2023-10-19T00:41:47;17.40;57.80
48043;DHT22;33988;47.992;8.820;2023-10-19T00:44:17;17.40;57.70
48043;DHT22;33988;47.992;8.820;2023-10-19T00:47:05;17.40;57.80
48043;DHT22;33988;47.992;8.820;2023-10-19T00:49:40;17.40;57.70
48043;DHT22;33988;47.992;8.820;2023-10-19T00:52:14;17.40;57.70
48043;DHT22;33988;47.992;8.820;2023-10-19T00:54:51;17.40;57.70
48043;DHT22;33988;47.992;8.820;2023-10-19T00:57:19;17.40;57.70
48043;DHT22;33988;47.992;8.820;2023-10-19T00:59:49;17.40;57.70
48043;DHT22;33988;47.992;8.820;2023-10-19T01:02:20;17.40;57.70
48043;DHT22;33988;47.992;8.820;2023-10-19T01:04:53;17.40;57.70
48043;DHT22;33988;47.992;8.820;2023-10-19T01:07:29;17.40;57.70
48043;DHT22;33988;47.992;8.820;2023-10-19T01:09:59;17.40;57.70
48043;DHT22;33988;47.992;8.820;2023-10-19T01:12:27;17.40;57.70
48043;DHT22;33988;47.992;8.820;2023-10-19T01:17:51;17.40;57.60
48043;DHT22;33988;47.992;8.820;2023-10-19T01:20:21;17.40;57.70
48043;DHT22;33988;47.992;8.820;2023-10-19T01:28:13;17.30;57.60
48043;DHT22;33988;47.992;8.820;2023-10-19T01:30:46;17.40;57.50
48043;DHT22;33988;47.992;8.820;2023-10-19T01:33:21;17.30;57.50
48043;DHT22;33988;47.992;8.820;2023-10-19T01:35:49;17.40;57.50
48043;DHT22;33988;47.992;8.820;2023-10-19T01:38:35;17.30;57.50
48043;DHT22;33988;47.992;8.820;2023-10-19T01:41:04;17.30;57.50
48043;DHT22;33988;47.992;8.820;2023-10-19T01:43:41;17.30;57.40
48043;DHT22;33988;47.992;8.820;2023-10-19T01:46:10;17.30;57.40
48043;DHT22;33988;47.992;8.820;2023-10-19T01:48:42;17.30;57.40
48043;DHT22;33988;47.992;8.820;2023-10-19T01:51:13;17.30;57.30
48043;DHT22;33988;47.992;8.820;2023-10-19T01:53:41;17.30;57.40
48043;DHT22;33988;47.992;8.820;2023-10-19T01:56:12;17.30;57.30
48043;DHT22;33988;47.992;8.820;2023-10-19T01:58:43;17.30;57.30
48043;DHT22;33988;47.992;8.820;2023-10-19T02:01:15;17.30;57.30
48043;DHT22;33988;47.992;8.820;2023-10-19T02:04:02;17.20;57.20
48043;DHT22;33988;47.992;8.820;2023-10-19T02:06:33;17.20;57.30
48043;DHT22;33988;47.992;8.820;2023-10-19T02:11:48;17.20;57.40
48043;DHT22;33988;47.992;8.820;2023-10-19T02:14:17;17.20;57.40
48043;DHT22;33988;47.992;8.820;2023-10-19T02:16:48;17.20;57.40
48043;DHT22;33988;47.992;8.820;2023-10-19T02:19:20;17.20;57.40
48043;DHT22;33988;47.992;8.820;2023-10-19T02:21:52;17.20;57.40
48043;DHT22;33988;47.992;8.820;2023-10-19T02:24:20;17.20;57.50
48043;DHT22;33988;47.992;8.820;2023-10-19T02:26:51;17.20;57.50
48043;DHT22;33988;47.992;8.820;2023-10-19T02:29:24;17.20;57.50
48043;DHT22;33988;47.992;8.820;2023-10-19T02:31:56;17.20;57.50
48043;DHT22;33988;47.992;8.820;2023-10-19T02:34:26;17.20;57.60
48043;DHT22;33988;47.992;8.820;2023-10-19T02:36:56;17.20;57.60
48043;DHT22;33988;47.992;8.820;2023-10-19T02:39:23;17.20;57.60
48043;DHT22;33988;47.992;8.820;2023-10-19T02:41:55;17.20;57.60
48043;DHT22;33988;47.992;8.820;2023-10-19T02:44:22;17.20;57.60
48043;DHT22;33988;47.992;8.820;2023-10-19T02:46:51;17.20;57.70
48043;DHT22;33988;47.992;8.820;2023-10-19T02:49:22;17.20;57.70
48043;DHT22;33988;47.992;8.820;2023-10-19T02:51:50;17.20;57.70
48043;DHT22;33988;47.992;8.820;2023-10-19T02:54:22;17.20;57.70
48043;DHT22;33988;47.992;8.820;2023-10-19T02:56:55;17.20;57.70
48043;DHT22;33988;47.992;8.820;2023-10-19T02:59:26;17.20;57.70
48043;DHT22;33988;47.992;8.820;2023-10-19T03:01:57;17.20;57.60
48043;DHT22;33988;47.992;8.820;2023-10-19T03:04:33;17.20;57.90
48043;DHT22;33988;47.992;8.820;2023-10-19T03:07:04;17.20;57.60
48043;DHT22;33988;47.992;8.820;2023-10-19T03:09:32;17.20;57.60
48043;DHT22;33988;47.992;8.820;2023-10-19T03:12:03;17.20;57.60
48043;DHT22;33988;47.992;8.820;2023-10-19T03:14:31;17.20;57.50
48043;DHT22;33988;47.992;8.820;2023-10-19T03:16:59;17.20;57.50
48043;DHT22;33988;47.992;8.820;2023-10-19T03:19:27;17.20;57.60
48043;DHT22;33988;47.992;8.820;2023-10-19T03:21:55;17.20;58.10
48043;DHT22;33988;47.992;8.820;2023-10-19T03:24:22;17.20;57.50
48043;DHT22;33988;47.992;8.820;2023-10-19T03:27:05;17.20;57.50
48043;DHT22;33988;47.992;8.820;2023-10-19T03:29:44;17.20;57.40
48043;DHT22;33988;47.992;8.820;2023-10-19T03:32:21;17.20;57.40
48043;DHT22;33988;47.992;8.820;2023-10-19T03:34:48;17.20;57.40
48043;DHT22;33988;47.992;8.820;2023-10-19T03:37:20;17.20;57.40
48043;DHT22;33988;47.992;8.820;2023-10-19T03:39:48;17.20;57.40
48043;DHT22;33988;47.992;8.820;2023-10-19T03:42:15;17.10;57.30
48043;DHT22;33988;47.992;8.820;2023-10-19T03:44:43;17.10;57.30
48043;DHT22;33988;47.992;8.820;2023-10-19T03:47:18;17.10;57.30
48043;DHT22;33988;47.992;8.820;2023-10-19T03:49:52;17.10;57.30
48043;DHT22;33988;47.992;8.820;2023-10-19T03:52:22;17.10;57.30
48043;DHT22;33988;47.992;8.820;2023-10-19T03:54:49;17.10;57.30
48043;DHT22;33988;47.992;8.820;2023-10-19T03:57:20;17.10;57.90
48043;DHT22;33988;47.992;8.820;2023-10-19T03:59:50;17.10;57.30
48043;DHT22;33988;47.992;8.820;2023-10-19T04:02:27;17.10;57.30
48043;DHT22;33988;47.992;8.820;2023-10-19T04:05:03;17.10;57.30
48043;DHT22;33988;47.992;8.820;2023-10-19T04:07:32;17.10;57.30
48043;DHT22;33988;47.992;8.820;2023-10-19T04:09:59;17.10;57.30
48043;DHT22;33988;47.992;8.820;2023-10-19T04:12:39;17.10;57.30
48043;DHT22;33988;47.992;8.820;2023-10-19T04:15:10;17.00;57.20
48043;DHT22;33988;47.992;8.820;2023-10-19T04:17:47;17.00;57.20
48043;DHT22;33988;47.992;8.820;2023-10-19T04:20:21;17.10;57.30
48043;DHT22;33988;47.992;8.820;2023-10-19T04:23:07;17.00;57.30
48043;DHT22;33988;47.992;8.820;2023-10-19T04:25:38;17.00;57.30
48043;DHT22;33988;47.992;8.820;2023-10-19T04:28:05;16.80;57.50
48043;DHT22;33988;47.992;8.820;2023-10-19T04:30:35;17.00;57.40
48043;DHT22;33988;47.992;8.820;2023-10-19T04:33:04;17.00;57.40
48043;DHT22;33988;47.992;8.820;2023-10-19T04:35:36;17.00;57.40
48043;DHT22;33988;47.992;8.820;2023-10-19T04:38:04;17.00;57.40
48043;DHT22;33988;47.992;8.820;2023-10-19T04:40:34;17.00;57.50
48043;DHT22;33988;47.992;8.820;2023-10-19T04:43:03;17.00;57.50
48043;DHT22;33988;47.992;8.820;2023-10-19T04:45:35;17.00;57.60
48043;DHT22;33988;47.992;8.820;2023-10-19T04:48:06;17.00;57.60
48043;DHT22;33988;47.992;8.820;2023-10-19T04:50:36;17.00;57.70
48043;DHT22;33988;47.992;8.820;2023-10-19T04:53:03;17.00;57.70
48043;DHT22;33988;47.992;8.820;2023-10-19T04:55:30;17.00;57.70
48043;DHT22;33988;47.992;8.820;2023-10-19T04:57:57;17.00;57.70
48043;DHT22;33988;47.992;8.820;2023-10-19T05:00:26;17.10;57.80
48043;DHT22;33988;47.992;8.820;2023-10-19T05:02:54;17.10;57.80
48043;DHT22;33988;47.992;8.820;2023-10-19T05:05:22;17.10;57.80
48043;DHT22;33988;47.992;8.820;2023-10-19T05:07:51;17.10;57.80
48043;DHT22;33988;47.992;8.820;2023-10-19T05:10:21;17.10;57.80
48043;DHT22;33988;47.992;8.820;2023-10-19T05:12:48;17.10;57.80
48043;DHT22;33988;47.992;8.820;2023-10-19T05:15:15;17.10;57.80
48043;DHT22;33988;47.992;8.820;2023-10-19T05:17:42;17.10;57.80
48043;DHT22;33988;47.992;8.820;2023-10-19T05:20:09;17.10;57.70
48043;DHT22;33988;47.992;8.820;2023-10-19T05:22:37;17.20;57.80
48043;DHT22;33988;47.992;8.820;2023-10-19T05:25:04;17.20;57.80
48043;DHT22;33988;47.992;8.820;2023-10-19T05:27:34;17.20;57.80
48043;DHT22;33988;47.992;8.820;2023-10-19T05:30:01;17.20;57.80
48043;DHT22;33988;47.992;8.820;2023-10-19T05:32:28;17.20;57.80
48043;DHT22;33988;47.992;8.820;2023-10-19T05:34:58;17.20;57.80
48043;DHT22;33988;47.992;8.820;2023-10-19T05:37:26;17.20;57.80
48043;DHT22;33988;47.992;8.820;2023-10-19T05:39:56;17.20;57.80
48043;DHT22;33988;47.992;8.820;2023-10-19T05:42:22;17.20;57.80
48043;DHT22;33988;47.992;8.820;2023-10-19T05:44:50;17.20;57.80
48043;DHT22;33988;47.992;8.820;2023-10-19T05:47:18;17.20;57.80
48043;DHT22;33988;47.992;8.820;2023-10-19T05:49:49;17.20;57.90
48043;DHT22;33988;47.992;8.820;2023-10-19T05:52:16;17.20;57.90
48043;DHT22;33988;47.992;8.820;2023-10-19T05:54:43;17.20;57.90
48043;DHT22;33988;47.992;8.820;2023-10-19T05:57:10;17.20;57.90
48043;DHT22;33988;47.992;8.820;2023-10-19T05:59:37;17.30;57.90
48043;DHT22;33988;47.992;8.820;2023-10-19T06:02:07;17.30;57.90
48043;DHT22;33988;47.992;8.820;2023-10-19T06:04:34;17.30;57.90
48043;DHT22;33988;47.992;8.820;2023-10-19T06:07:01;17.30;57.90
48043;DHT22;33988;47.992;8.820;2023-10-19T06:09:29;17.30;57.90
48043;DHT22;33988;47.992;8.820;2023-10-19T06:11:56;17.30;57.90
48043;DHT22;33988;47.992;8.820;2023-10-19T06:14:25;17.30;57.90
48043;DHT22;33988;47.992;8.820;2023-10-19T06:16:52;17.30;57.90
48043;DHT22;33988;47.992;8.820;2023-10-19T06:19:23;17.30;57.90
48043;DHT22;33988;47.992;8.820;2023-10-19T06:21:53;17.30;57.90
48043;DHT22;33988;47.992;8.820;2023-10-19T06:24:22;17.30;57.90
48043;DHT22;33988;47.992;8.820;2023-10-19T06:26:51;17.40;57.90
48043;DHT22;33988;47.992;8.820;2023-10-19T06:29:19;17.30;57.80
48043;DHT22;33988;47.992;8.820;2023-10-19T06:31:46;17.40;57.80
48043;DHT22;33988;47.992;8.820;2023-10-19T06:34:15;17.40;57.80
48043;DHT22;33988;47.992;8.820;2023-10-19T06:36:47;17.40;57.80
48043;DHT22;33988;47.992;8.820;2023-10-19T06:39:14;17.40;57.80
48043;DHT22;33988;47.992;8.820;2023-10-19T06:41:44;17.40;57.80
48043;DHT22;33988;47.992;8.820;2023-10-19T06:44:11;17.40;57.80
48043;DHT22;33988;47.992;8.820;2023-10-19T06:46:39;17.40;57.90
48043;DHT22;33988;47.992;8.820;2023-10-19T06:49:06;17.40;57.90
48043;DHT22;33988;47.992;8.820;2023-10-19T06:51:34;17.40;57.90
48043;DHT22;33988;47.992;8.820;2023-10-19T06:54:03;17.40;57.90
48043;DHT22;33988;47.992;8.820;2023-10-19T06:56:30;17.40;57.90
48043;DHT22;33988;47.992;8.820;2023-10-19T06:58:59;17.40;57.90
48043;DHT22;33988;47.992;8.820;2023-10-19T07:01:27;17.40;57.90
48043;DHT22;33988;47.992;8.820;2023-10-19T07:03:56;17.40;57.90
48043;DHT22;33988;47.992;8.820;2023-10-19T07:06:25;17.40;57.90
48043;DHT22;33988;47.992;8.820;2023-10-19T07:08:54;17.40;57.90
48043;DHT22;33988;47.992;8.820;2023-10-19T07:11:23;17.40;57.90
48043;DHT22;33988;47.992;8.820;2023-10-19T07:13:50;17.40;57.90
48043;DHT22;33988;47.992;8.820;2023-10-19T07:16:17;17.40;57.90
48043;DHT22;33988;47.992;8.820;2023-10-19T07:18:46;17.50;58.00
48043;DHT22;33988;47.992;8.820;2023-10-19T07:21:13;17.40;58.00
48043;DHT22;33988;47.992;8.820;2023-10-19T07:23:40;17.50;58.00
48043;DHT22;33988;47.992;8.820;2023-10-19T07:26:07;17.40;58.00
48043;DHT22;33988;47.992;8.820;2023-10-19T07:28:35;17.40;58.00
48043;DHT22;33988;47.992;8.820;2023-10-19T07:31:05;17.50;58.00
48043;DHT22;33988;47.992;8.820;2023-10-19T07:33:39;17.50;58.10
48043;DHT22;33988;47.992;8.820;2023-10-19T07:36:13;17.50;58.10
48043;DHT22;33988;47.992;8.820;2023-10-19T07:38:45;17.50;58.10
48043;DHT22;33988;47.992;8.820;2023-10-19T07:41:14;17.50;58.10
48043;DHT22;33988;47.992;8.820;2023-10-19T07:43:43;17.50;58.20
48043;DHT22;33988;47.992;8.820;2023-10-19T07:46:13;17.50;58.20
48043;DHT22;33988;47.992;8.820;2023-10-19T07:48:42;17.50;58.20
48043;DHT22;33988;47.992;8.820;2023-10-19T07:51:12;17.60;58.30
48043;DHT22;33988;47.992;8.820;2023-10-19T07:53:41;17.50;58.30
48043;DHT22;33988;47.992;8.820;2023-10-19T07:56:10;17.60;58.40
48043;DHT22;33988;47.992;8.820;2023-10-19T07:58:38;17.50;58.40
48043;DHT22;33988;47.992;8.820;2023-10-19T08:01:06;17.60;58.40
48043;DHT22;33988;47.992;8.820;2023-10-19T08:03:36;17.60;58.40
48043;DHT22;33988;47.992;8.820;2023-10-19T08:06:03;17.60;58.50
48043;DHT22;33988;47.992;8.820;2023-10-19T08:08:33;17.60;58.50
48043;DHT22;33988;47.992;8.820;2023-10-19T08:11:01;17.60;58.50
48043;DHT22;33988;47.992;8.820;2023-10-19T08:13:32;17.70;58.60
48043;DHT22;33988;47.992;8.820;2023-10-19T08:16:01;17.70;58.60
48043;DHT22;33988;47.992;8.820;2023-10-19T08:18:28;17.70;58.60
48043;DHT22;33988;47.992;8.820;2023-10-19T08:20:57;17.70;58.60
48043;DHT22;33988;47.992;8.820;2023-10-19T08:23:26;17.70;58.60
48043;DHT22;33988;47.992;8.820;2023-10-19T08:25:55;17.80;58.60
48043;DHT22;33988;47.992;8.820;2023-10-19T08:28:23;17.80;58.60
48043;DHT22;33988;47.992;8.820;2023-10-19T08:30:51;17.80;58.60
48043;DHT22;33988;47.992;8.820;2023-10-19T08:33:25;17.80;58.60
48043;DHT22;33988;47.992;8.820;2023-10-19T08:35:54;17.80;58.60
48043;DHT22;33988;47.992;8.820;2023-10-19T08:38:24;17.80;58.60
48043;DHT22;33988;47.992;8.820;2023-10-19T08:40:51;17.80;58.60
48043;DHT22;33988;47.992;8.820;2023-10-19T08:43:21;17.90;58.70
48043;DHT22;33988;47.992;8.820;2023-10-19T08:45:48;17.90;58.70
48043;DHT22;33988;47.992;8.820;2023-10-19T08:48:15;17.90;58.80
48043;DHT22;33988;47.992;8.820;2023-10-19T08:50:43;18.00;58.80
48043;DHT22;33988;47.992;8.820;2023-10-19T08:53:10;18.00;58.80
48043;DHT22;33988;47.992;8.820;2023-10-19T08:55:41;18.00;58.80
48043;DHT22;33988;47.992;8.820;2023-10-19T08:58:19;18.00;58.80
48043;DHT22;33988;47.992;8.820;2023-10-19T09:00:48;18.00;58.80
48043;DHT22;33988;47.992;8.820;2023-10-19T09:03:26;18.00;59.40
48043;DHT22;33988;47.992;8.820;2023-10-19T09:05:56;18.00;58.80
48043;DHT22;33988;47.992;8.820;2023-10-19T09:08:23;18.10;58.90
48043;DHT22;33988;47.992;8.820;2023-10-19T09:10:51;18.00;58.90
48043;DHT22;33988;47.992;8.820;2023-10-19T09:13:23;18.10;59.00
48043;DHT22;33988;47.992;8.820;2023-10-19T09:15:54;18.10;59.00
48043;DHT22;33988;47.992;8.820;2023-10-19T09:18:24;18.10;59.00
48043;DHT22;33988;47.992;8.820;2023-10-19T09:20:56;18.20;59.00
48043;DHT22;33988;47.992;8.820;2023-10-19T09:23:30;18.10;59.00
48043;DHT22;33988;47.992;8.820;2023-10-19T09:25:59;18.20;59.10
48043;DHT22;33988;47.992;8.820;2023-10-19T09:28:32;18.20;59.00
48043;DHT22;33988;47.992;8.820;2023-10-19T09:31:06;18.20;59.10
48043;DHT22;33988;47.992;8.820;2023-10-19T09:33:46;18.30;59.20
48043;DHT22;33988;47.992;8.820;2023-10-19T09:36:15;18.30;59.20
48043;DHT22;33988;47.992;8.820;2023-10-19T09:38:50;18.30;59.10
48043;DHT22;33988;47.992;8.820;2023-10-19T09:41:21;18.30;59.20
48043;DHT22;33988;47.992;8.820;2023-10-19T09:43:49;18.30;59.80
48043;DHT22;33988;47.992;8.820;2023-10-19T09:46:25;18.40;59.20
48043;DHT22;33988;47.992;8.820;2023-10-19T09:48:54;18.40;59.30
48043;DHT22;33988;47.992;8.820;2023-10-19T09:51:22;18.40;59.20
48043;DHT22;33988;47.992;8.820;2023-10-19T09:54:07;18.40;59.20
48043;DHT22;33988;47.992;8.820;2023-10-19T09:56:43;18.40;59.40
48043;DHT22;33988;47.992;8.820;2023-10-19T10:02:09;18.40;59.50
48043;DHT22;33988;47.992;8.820;2023-10-19T10:04:44;18.40;59.60
48043;DHT22;33988;47.992;8.820;2023-10-19T10:07:15;18.50;59.40
48043;DHT22;33988;47.992;8.820;2023-10-19T10:09:57;18.50;59.30
48043;DHT22;33988;47.992;8.820;2023-10-19T10:12:25;18.50;59.30
48043;DHT22;33988;47.992;8.820;2023-10-19T10:17:40;18.60;59.50
48043;DHT22;33988;47.992;8.820;2023-10-19T10:22:40;18.60;59.60
48043;DHT22;33988;47.992;8.820;2023-10-19T10:25:29;18.60;59.60
48043;DHT22;33988;47.992;8.820;2023-10-19T10:27:56;18.60;60.00
48043;DHT22;33988;47.992;8.820;2023-10-19T10:30:24;18.70;60.00
48043;DHT22;33988;47.992;8.820;2023-10-19T10:32:53;18.70;60.00
48043;DHT22;33988;47.992;8.820;2023-10-19T10:38:09;18.80;60.70
48043;DHT22;33988;47.992;8.820;2023-10-19T10:43:14;18.90;60.70
48043;DHT22;33988;47.992;8.820;2023-10-19T10:45:45;18.90;60.60
48043;DHT22;33988;47.992;8.820;2023-10-19T10:48:17;19.00;60.70
48043;DHT22;33988;47.992;8.820;2023-10-19T10:50:46;19.00;60.60
48043;DHT22;33988;47.992;8.820;2023-10-19T10:53:14;19.00;60.50
48043;DHT22;33988;47.992;8.820;2023-10-19T10:55:44;19.00;60.60
48043;DHT22;33988;47.992;8.820;2023-10-19T10:58:16;19.10;60.80
48043;DHT22;33988;47.992;8.820;2023-10-19T11:00:46;19.20;60.90
48043;DHT22;33988;47.992;8.820;2023-10-19T11:03:21;19.20;61.20
48043;DHT22;33988;47.992;8.820;2023-10-19T11:05:50;19.20;61.40
48043;DHT22;33988;47.992;8.820;2023-10-19T11:08:24;19.30;61.50
48043;DHT22;33988;47.992;8.820;2023-10-19T11:10:51;19.30;61.70
48043;DHT22;33988;47.992;8.820;2023-10-19T11:13:23;19.40;61.50
48043;DHT22;33988;47.992;8.820;2023-10-19T11:15:53;19.40;61.50
48043;DHT22;33988;47.992;8.820;2023-10-19T11:21:10;19.50;61.70
48043;DHT22;33988;47.992;8.820;2023-10-19T11:23:43;19.60;62.00
48043;DHT22;33988;47.992;8.820;2023-10-19T11:26:15;19.70;62.50
48043;DHT22;33988;47.992;8.820;2023-10-19T11:29:00;19.70;62.40
48043;DHT22;33988;47.992;8.820;2023-10-19T11:31:28;19.70;63.10
48043;DHT22;33988;47.992;8.820;2023-10-19T11:34:04;19.80;62.80
48043;DHT22;33988;47.992;8.820;2023-10-19T11:36:31;19.90;62.90
48043;DHT22;33988;47.992;8.820;2023-10-19T11:38:58;19.90;63.00
48043;DHT22;33988;47.992;8.820;2023-10-19T11:41:27;20.10;63.20
48043;DHT22;33988;47.992;8.820;2023-10-19T11:43:54;20.10;63.40
48043;DHT22;33988;47.992;8.820;2023-10-19T11:46:23;20.20;63.60
48043;DHT22;33988;47.992;8.820;2023-10-19T11:48:52;20.30;63.60
48043;DHT22;33988;47.992;8.820;2023-10-19T11:51:21;20.40;63.40
48043;DHT22;33988;47.992;8.820;2023-10-19T11:53:48;20.50;63.30
48043;DHT22;33988;47.992;8.820;2023-10-19T11:56:20;20.50;63.10
48043;DHT22;33988;47.992;8.820;2023-10-19T11:58:50;20.60;62.80
48043;DHT22;33988;47.992;8.820;2023-10-19T12:01:19;20.60;62.60
48043;DHT22;33988;47.992;8.820;2023-10-19T12:03:46;20.70;62.50
48043;DHT22;33988;47.992;8.820;2023-10-19T12:06:18;20.80;62.30
48043;DHT22;33988;47.992;8.820;2023-10-19T12:08:50;20.80;62.20
48043;DHT22;33988;47.992;8.820;2023-10-19T12:11:17;20.90;62.20
48043;DHT22;33988;47.992;8.820;2023-10-19T12:13:48;20.90;62.30
48043;DHT22;33988;47.992;8.820;2023-10-19T12:16:16;20.90;62.30
48043;DHT22;33988;47.992;8.820;2023-10-19T12:18:47;21.00;62.30
48043;DHT22;33988;47.992;8.820;2023-10-19T12:21:17;21.00;62.20
48043;DHT22;33988;47.992;8.820;2023-10-19T12:23:45;21.00;63.00
48043;DHT22;33988;47.992;8.820;2023-10-19T12:26:40;21.10;62.20
48043;DHT22;33988;47.992;8.820;2023-10-19T12:29:09;21.10;62.30
48043;DHT22;33988;47.992;8.820;2023-10-19T12:31:40;21.10;62.20
48043;DHT22;33988;47.992;8.820;2023-10-19T12:34:07;21.10;62.10
48043;DHT22;33988;47.992;8.820;2023-10-19T12:36:35;21.10;62.00
48043;DHT22;33988;47.992;8.820;2023-10-19T12:39:03;21.10;62.10
48043;DHT22;33988;47.992;8.820;2023-10-19T12:41:36;21.10;62.20
48043;DHT22;33988;47.992;8.820;2023-10-19T12:44:03;21.10;62.20
48043;DHT22;33988;47.992;8.820;2023-10-19T12:46:39;21.10;62.20
48043;DHT22;33988;47.992;8.820;2023-10-19T12:49:06;21.20;62.40
48043;DHT22;33988;47.992;8.820;2023-10-19T12:51:42;21.20;62.40
48043;DHT22;33988;47.992;8.820;2023-10-19T12:54:13;21.20;62.50
48043;DHT22;33988;47.992;8.820;2023-10-19T12:56:40;21.10;62.40
48043;DHT22;33988;47.992;8.820;2023-10-19T12:59:07;21.20;62.40
48043;DHT22;33988;47.992;8.820;2023-10-19T13:01:40;21.20;62.50
48043;DHT22;33988;47.992;8.820;2023-10-19T13:04:12;21.20;62.50
48043;DHT22;33988;47.992;8.820;2023-10-19T13:06:45;21.20;62.60
48043;DHT22;33988;47.992;8.820;2023-10-19T13:09:14;21.20;62.50
48043;DHT22;33988;47.992;8.820;2023-10-19T13:11:43;21.20;62.40
48043;DHT22;33988;47.992;8.820;2023-10-19T13:14:12;21.20;62.30
48043;DHT22;33988;47.992;8.820;2023-10-19T13:16:39;21.30;62.50
48043;DHT22;33988;47.992;8.820;2023-10-19T13:19:09;21.20;62.60
48043;DHT22;33988;47.992;8.820;2023-10-19T13:21:44;21.30;62.80
48043;DHT22;33988;47.992;8.820;2023-10-19T13:24:13;21.30;62.80
48043;DHT22;33988;47.992;8.820;2023-10-19T13:26:41;21.30;62.80
48043;DHT22;33988;47.992;8.820;2023-10-19T13:29:15;21.30;62.80
48043;DHT22;33988;47.992;8.820;2023-10-19T13:31:42;21.30;62.80
48043;DHT22;33988;47.992;8.820;2023-10-19T13:34:16;21.40;62.80
48043;DHT22;33988;47.992;8.820;2023-10-19T13:36:49;21.30;62.70
48043;DHT22;33988;47.992;8.820;2023-10-19T13:39:18;21.40;62.70
48043;DHT22;33988;47.992;8.820;2023-10-19T13:41:45;21.40;62.60
48043;DHT22;33988;47.992;8.820;2023-10-19T13:44:12;21.40;62.60
48043;DHT22;33988;47.992;8.820;2023-10-19T13:46:39;21.40;62.50
48043;DHT22;33988;47.992;8.820;2023-10-19T13:49:08;21.40;62.40
48043;DHT22;33988;47.992;8.820;2023-10-19T13:51:36;21.40;62.40
48043;DHT22;33988;47.992;8.820;2023-10-19T13:54:03;21.40;62.40
48043;DHT22;33988;47.992;8.820;2023-10-19T13:56:36;21.40;62.40
48043;DHT22;33988;47.992;8.820;2023-10-19T13:59:03;21.40;62.40
48043;DHT22;33988;47.992;8.820;2023-10-19T14:01:32;21.40;62.40
48043;DHT22;33988;47.992;8.820;2023-10-19T14:03:59;21.40;62.40
48043;DHT22;33988;47.992;8.820;2023-10-19T14:06:29;21.40;62.30
48043;DHT22;33988;47.992;8.820;2023-10-19T14:08:56;21.40;62.30
48043;DHT22;33988;47.992;8.820;2023-10-19T14:11:23;21.40;62.20
48043;DHT22;33988;47.992;8.820;2023-10-19T14:13:50;21.50;62.20
48043;DHT22;33988;47.992;8.820;2023-10-19T14:16:19;21.40;62.10
48043;DHT22;33988;47.992;8.820;2023-10-19T14:18:46;21.40;62.10
48043;DHT22;33988;47.992;8.820;2023-10-19T14:21:15;21.40;62.10
48043;DHT22;33988;47.992;8.820;2023-10-19T14:23:43;21.40;62.00
48043;DHT22;33988;47.992;8.820;2023-10-19T14:26:12;21.40;61.90
48043;DHT22;33988;47.992;8.820;2023-10-19T14:28:41;21.30;61.70
48043;DHT22;33988;47.992;8.820;2023-10-19T14:31:08;21.30;61.60
48043;DHT22;33988;47.992;8.820;2023-10-19T14:33:37;21.30;61.60
48043;DHT22;33988;47.992;8.820;2023-10-19T14:36:07;21.30;61.60
48043;DHT22;33988;47.992;8.820;2023-10-19T14:38:35;21.30;61.60
48043;DHT22;33988;47.992;8.820;2023-10-19T14:41:05;21.20;61.60
48043;DHT22;33988;47.992;8.820;2023-10-19T14:43:34;21.20;61.60
48043;DHT22;33988;47.992;8.820;2023-10-19T14:46:03;21.20;61.50
48043;DHT22;33988;47.992;8.820;2023-10-19T14:48:32;21.20;61.50
48043;DHT22;33988;47.992;8.820;2023-10-19T14:51:04;21.10;61.50
48043;DHT22;33988;47.992;8.820;2023-10-19T14:53:35;21.10;61.40
48043;DHT22;33988;47.992;8.820;2023-10-19T14:56:05;21.10;61.50
48043;DHT22;33988;47.992;8.820;2023-10-19T14:58:37;21.10;61.40
48043;DHT22;33988;47.992;8.820;2023-10-19T15:01:06;21.10;61.50
48043;DHT22;33988;47.992;8.820;2023-10-19T15:03:37;21.10;61.40
48043;DHT22;33988;47.992;8.820;2023-10-19T15:06:07;21.00;61.30
48043;DHT22;33988;47.992;8.820;2023-10-19T15:08:34;21.10;61.40
48043;DHT22;33988;47.992;8.820;2023-10-19T15:11:03;21.10;61.30
48043;DHT22;33988;47.992;8.820;2023-10-19T15:13:30;21.10;61.30
48043;DHT22;33988;47.992;8.820;2023-10-19T15:16:06;21.10;61.60
48043;DHT22;33988;47.992;8.820;2023-10-19T15:18:34;21.10;61.30
48043;DHT22;33988;47.992;8.820;2023-10-19T15:21:07;21.10;61.40
48043;DHT22;33988;47.992;8.820;2023-10-19T15:23:40;21.10;61.50
48043;DHT22;33988;47.992;8.820;2023-10-19T15:26:16;21.10;61.50
48043;DHT22;33988;47.992;8.820;2023-10-19T15:28:44;21.10;61.50
48043;DHT22;33988;47.992;8.820;2023-10-19T15:31:11;21.20;61.60
48043;DHT22;33988;47.992;8.820;2023-10-19T15:33:38;21.10;61.50
48043;DHT22;33988;47.992;8.820;2023-10-19T15:36:08;21.20;61.40
48043;DHT22;33988;47.992;8.820;2023-10-19T15:38:41;21.20;61.40
48043;DHT22;33988;47.992;8.820;2023-10-19T15:41:17;21.20;61.30
48043;DHT22;33988;47.992;8.820;2023-10-19T15:43:46;21.10;61.10
48043;DHT22;33988;47.992;8.820;2023-10-19T15:46:13;21.20;61.10
48043;DHT22;33988;47.992;8.820;2023-10-19T15:48:40;21.20;61.00
48043;DHT22;33988;47.992;8.820;2023-10-19T15:51:07;21.20;61.00
48043;DHT22;33988;47.992;8.820;2023-10-19T15:53:36;21.20;60.90
48043;DHT22;33988;47.992;8.820;2023-10-19T15:56:03;21.20;60.90
48043;DHT22;33988;47.992;8.820;2023-10-19T15:58:33;21.20;60.80
48043;DHT22;33988;47.992;8.820;2023-10-19T16:01:03;21.20;60.80
48043;DHT22;33988;47.992;8.820;2023-10-19T16:03:33;21.20;60.80
48043;DHT22;33988;47.992;8.820;2023-10-19T16:06:03;21.20;60.70
48043;DHT22;33988;47.992;8.820;2023-10-19T16:08:32;21.20;60.70
48043;DHT22;33988;47.992;8.820;2023-10-19T16:10:59;21.20;60.70
48043;DHT22;33988;47.992;8.820;2023-10-19T16:13:29;21.10;60.70
48043;DHT22;33988;47.992;8.820;2023-10-19T16:16:02;21.10;60.60